Jester, Texas
Current Conditions -  °F | °C
As of 9:53 AM on Wednesday 22 Oct 2014 (Local Time) from KCRS Reporting Station
Clear Clear  
Wind Chill: 71°   Ceiling: Unl
Heat Index: 71°   Visibility: 9mi
Dew Point: 63°   Wind: 6mph
Humidity: 75%   Direction: 110°ESE
Pressure: 30.16"   Gusts: NA
Location:  31.9458°N, 96.5713°W
Report Text: KCRS 221453Z AUTO 11005KT 9SM CLR 22/17 A3016 RMK AO2 SLP210 T02170172 51016
Loading
Personal Weather Stations






























Interactive Weather Map
Tropical Storm Tracking
New forecast layout! Learn more

10-Day Weather Forecast

Advertisements
Track Severe Weather on mobile